Accueil
METAR-TAF:

METAR-TAF

Aéroports :

Mendoza, Argentine

latitude: 32-50S, longitude: 068-47W, altitude: 705 m

Observation

Le bulletin a été fait il y a 58 minutes, à 16:00 UTC
Vent 4 kt de nord
Température 13°C
Humidité 35%
Pression 1019 hPa
Visibilité 10 km ou plus
pas de nuages en-dessous de 1500 mètres et pas de cumulonimbus.

METAR: SAME 251600Z 36004KT CAVOK 13/M02 Q1019

Heure: 13:58 (16:58 UTC)

Prévision

Le bulletin a été fait il y a 5 heures et 58 minutes, à 11:00 UTC
Prévision valable du 25 à 12 UTC au 26 à 12 UTC
Vent 5 kt de sud-est
Visibilité 10 km ou plus
Quelques nuages à une hauteur de 4000 ft
Temporairement
du 25 à 12 UTC au 25 à 14 UTC
Vent kt de nord
Visibilité: 6000 m

TAF: SAME 251100Z 2512/2612 14005KT 9999 FEW040 TX17/2520Z TN05/2610Z TEMPO 2512/2514 00000KT 6000 BRFU NSC

Observations et prévisions météorologiques de plus de 4000 aéroports (messages METAR et TAF).

Les stations disponibles sont représentées par des disques jaunes et rouges sur la carte.

Passer la souris dessus pour voir le nom de la station.

Cliquer dessus pour voir les observations et prévisions météorologiques.

Pour changer de carte: cliquez sur les boutons verts avec une croix noire pour zoomer, sur le bouton vert avec un tiret pour effectuer un zoom arrière, ou sur les flèches vertes pour les cartes adjacentes.


METAR-TAF: